createdAt,value
2019-04-03T04:00:42.026Z,7.25
2019-04-03T04:01:41.920Z,7.32
2019-04-03T04:02:44.559Z,7.31
2019-04-03T04:03:42.442Z,7.40
2019-04-03T04:04:41.895Z,7.43
2019-04-03T04:05:41.897Z,7.48
2019-04-03T04:06:41.864Z,7.53
2019-04-03T04:07:41.859Z,7.66
2019-04-03T04:08:44.203Z,7.51
2019-04-03T04:09:42.208Z,7.53
2019-04-03T04:11:57.126Z,7.67
2019-04-03T04:12:57.109Z,7.72
2019-04-03T04:13:57.114Z,7.75
2019-04-03T04:14:57.660Z,7.72
2019-04-03T04:15:57.392Z,7.66
2019-04-03T04:16:57.124Z,7.83
2019-04-03T04:17:57.057Z,7.85
2019-04-03T04:18:58.031Z,7.88
2019-04-03T04:19:57.050Z,7.88
2019-04-03T04:20:57.072Z,7.94
2019-04-03T04:21:57.407Z,7.94
2019-04-03T04:22:57.347Z,7.97
2019-04-03T04:23:57.670Z,7.98
2019-04-03T04:24:59.071Z,7.94
2019-04-03T04:25:56.971Z,8.05
2019-04-03T04:26:56.963Z,8.03
2019-04-03T04:27:56.954Z,8.13
2019-04-03T04:28:56.950Z,8.00
2019-04-03T04:29:56.947Z,8.08
2019-04-03T04:30:56.967Z,8.09
2019-04-03T04:31:56.955Z,8.15
2019-04-03T04:32:56.915Z,8.10
2019-04-03T04:33:56.888Z,8.09
2019-04-03T04:34:56.894Z,8.08
2019-04-03T04:35:56.937Z,8.06
2019-04-03T04:36:56.876Z,8.10
2019-04-03T04:37:56.853Z,8.13
2019-04-03T04:38:57.941Z,8.06
2019-04-03T04:39:59.246Z,8.12
2019-04-03T04:40:56.967Z,8.10
2019-04-03T04:41:56.936Z,8.10
2019-04-03T04:42:56.810Z,8.18
2019-04-03T04:43:56.789Z,8.12
2019-04-03T04:44:56.818Z,8.09
2019-04-03T04:45:56.770Z,8.16
2019-04-03T04:46:56.756Z,8.16
2019-04-03T04:47:56.772Z,8.19
2019-04-03T04:48:56.744Z,8.09
2019-04-03T04:49:56.723Z,8.09
2019-04-03T04:50:56.716Z,8.19
2019-04-03T04:51:57.582Z,8.19
2019-04-03T04:52:58.657Z,8.18
2019-04-03T04:53:57.789Z,8.23
2019-04-03T04:54:56.664Z,8.23
2019-04-03T04:55:56.655Z,8.13
2019-04-03T04:56:56.642Z,8.16
2019-04-03T04:57:56.638Z,8.16
2019-04-03T04:58:56.640Z,8.18
2019-04-03T04:59:56.614Z,8.20
2019-04-03T05:00:56.692Z,8.13
2019-04-03T05:01:56.591Z,8.16
2019-04-03T05:02:56.605Z,8.19
2019-04-03T05:03:56.597Z,8.18
2019-04-03T05:04:56.708Z,8.13
2019-04-03T05:05:58.257Z,8.16
2019-04-03T05:06:58.238Z,8.23
2019-04-03T05:07:56.523Z,8.16
2019-04-03T05:08:56.515Z,8.16
2019-04-03T05:09:56.561Z,8.16
2019-04-03T05:10:56.501Z,8.09
2019-04-03T05:11:56.520Z,8.16
2019-04-03T05:12:56.479Z,8.19
2019-04-03T05:13:56.614Z,8.24
2019-04-03T05:14:56.542Z,8.23
2019-04-03T05:15:56.458Z,8.18
2019-04-03T05:16:56.433Z,8.19
2019-04-03T05:17:57.685Z,8.23
2019-04-03T05:20:22.876Z,8.16
2019-04-03T05:21:22.620Z,8.16
2019-04-03T05:22:23.709Z,8.10
2019-04-03T05:23:23.870Z,8.10
2019-04-03T05:24:22.598Z,8.18
2019-04-03T05:25:22.586Z,8.10
2019-04-03T05:26:22.567Z,8.08
2019-04-03T05:27:22.553Z,8.10
2019-04-03T05:28:24.722Z,8.09
2019-04-03T05:29:22.556Z,8.12
2019-04-03T05:30:22.526Z,8.06
2019-04-03T05:31:22.536Z,8.15
2019-04-03T05:32:22.501Z,8.06
2019-04-03T05:33:22.502Z,8.23
2019-04-03T05:34:22.509Z,8.18
2019-04-03T05:35:22.469Z,8.26
2019-04-03T05:36:22.627Z,8.24
2019-04-03T05:37:22.474Z,8.16
2019-04-03T05:38:22.617Z,8.16
2019-04-03T05:39:23.926Z,8.15
2019-04-03T05:40:22.443Z,8.18
2019-04-03T05:41:22.416Z,8.24
2019-04-03T05:42:22.401Z,8.15
2019-04-03T05:43:22.428Z,8.24
2019-04-03T05:44:23.812Z,8.20
2019-04-03T05:45:22.367Z,8.24
2019-04-03T05:46:22.378Z,8.26
2019-04-03T05:47:22.341Z,8.31
2019-04-03T05:48:22.548Z,8.23
2019-04-03T05:49:22.325Z,8.18
2019-04-03T05:50:22.317Z,8.24
2019-04-03T05:51:22.318Z,8.34
2019-04-03T05:52:22.598Z,8.26
2019-04-03T05:53:22.443Z,8.27
2019-04-03T05:54:22.298Z,8.34
2019-04-03T05:55:22.261Z,8.31
2019-04-03T05:56:22.266Z,8.27
2019-04-03T05:57:22.240Z,8.20
2019-04-03T05:58:22.231Z,8.27
2019-04-03T05:59:22.210Z,8.19
2019-04-03T06:00:22.208Z,8.37
2019-04-03T06:01:22.274Z,8.27
2019-04-03T06:02:22.530Z,8.30
2019-04-03T06:03:37.580Z,8.31
2019-04-03T06:04:23.171Z,8.30
2019-04-03T06:05:22.225Z,8.33
2019-04-03T06:06:22.136Z,8.30
2019-04-03T06:07:22.178Z,8.28
2019-04-03T06:08:24.861Z,8.28
2019-04-03T06:09:23.157Z,8.33
2019-04-03T06:10:22.636Z,8.31
2019-04-03T06:11:23.693Z,8.31
2019-04-03T06:12:22.527Z,8.27
2019-04-03T06:13:22.087Z,8.37
2019-04-03T06:14:23.595Z,8.37
2019-04-03T06:15:22.808Z,8.30
2019-04-03T06:16:24.754Z,8.26
2019-04-03T06:17:22.316Z,8.41
2019-04-03T06:18:22.047Z,8.46
2019-04-03T06:19:22.516Z,8.37
2019-04-03T06:20:21.994Z,8.44
2019-04-03T06:21:21.979Z,8.46
2019-04-03T06:22:22.201Z,8.49
2019-04-03T06:23:22.098Z,8.37
2019-04-03T06:24:22.303Z,8.42
2019-04-03T06:25:22.107Z,8.48
2019-04-03T06:26:21.943Z,8.51
2019-04-03T06:27:22.138Z,8.49
2019-04-03T06:28:21.910Z,8.44
2019-04-03T06:29:21.914Z,8.44
2019-04-03T06:30:22.945Z,8.49
2019-04-03T06:31:21.877Z,8.51
2019-04-03T06:32:24.392Z,8.49
2019-04-03T06:33:24.383Z,8.53
2019-04-03T06:34:21.942Z,8.60
2019-04-03T06:35:21.946Z,8.53
2019-04-03T06:36:21.861Z,8.51
2019-04-03T06:37:22.693Z,8.53
2019-04-03T06:38:23.987Z,8.52
2019-04-03T06:39:22.945Z,8.48
2019-04-03T06:40:22.027Z,8.49
2019-04-03T06:41:21.803Z,8.61
2019-04-03T06:42:21.780Z,8.61
2019-04-03T06:43:21.782Z,8.60
2019-04-03T06:44:22.601Z,8.66
2019-04-03T06:45:21.745Z,8.66
2019-04-03T06:46:21.731Z,8.67
2019-04-03T06:47:21.877Z,8.69
2019-04-03T06:48:21.745Z,8.67
2019-04-03T06:49:21.691Z,8.78
2019-04-03T06:50:21.693Z,8.76
2019-04-03T06:51:21.662Z,8.70
2019-04-03T06:52:22.164Z,8.70
2019-04-03T06:53:25.408Z,8.78
2019-04-03T06:54:22.633Z,8.73
2019-04-03T06:55:24.700Z,8.78
2019-04-03T06:56:21.624Z,8.76
2019-04-03T06:57:21.827Z,8.74
2019-04-03T06:58:21.711Z,8.71
2019-04-03T06:59:21.619Z,8.82
2019-04-03T07:00:21.570Z,8.73
2019-04-03T07:01:21.640Z,8.71
2019-04-03T07:02:21.544Z,8.84
2019-04-03T07:03:22.811Z,8.94
2019-04-03T07:04:21.531Z,8.85
2019-04-03T07:05:21.525Z,8.97
2019-04-03T07:06:21.525Z,9.00
2019-04-03T07:07:32.082Z,9.08
2019-04-03T07:08:30.243Z,9.10
2019-04-03T07:09:33.785Z,9.11
2019-04-03T07:10:25.760Z,9.14
2019-04-03T07:11:23.735Z,9.11
2019-04-03T07:12:21.539Z,9.10
2019-04-03T07:13:21.489Z,9.11
2019-04-03T07:14:21.426Z,9.11
2019-04-03T07:15:23.994Z,9.06
2019-04-03T07:16:21.434Z,9.11
2019-04-03T07:20:35.082Z,9.10
2019-04-03T07:21:34.982Z,9.11
2019-04-03T07:22:35.090Z,9.08
2019-04-03T07:23:34.973Z,9.10
2019-04-03T07:24:35.062Z,9.11
2019-04-03T07:25:35.104Z,9.11
2019-04-03T07:26:42.445Z,9.18
2019-04-03T07:27:37.007Z,9.14
2019-04-03T07:28:35.151Z,9.18
2019-04-03T07:29:34.963Z,9.25
2019-04-03T07:30:34.863Z,9.28
2019-04-03T07:31:34.867Z,9.23
2019-04-03T07:32:34.846Z,9.22
2019-04-03T07:33:35.011Z,9.25
2019-04-03T07:34:34.831Z,9.29
2019-04-03T07:35:34.998Z,9.39
2019-04-03T07:36:34.837Z,9.39
2019-04-03T07:37:35.060Z,9.39
2019-04-03T07:38:34.802Z,9.44
2019-04-03T07:39:34.928Z,9.43
2019-04-03T07:40:34.764Z,9.46
2019-04-03T07:41:34.753Z,9.47
2019-04-03T07:42:34.745Z,9.50
2019-04-03T07:43:34.733Z,9.50
2019-04-03T07:44:34.987Z,9.58
2019-04-03T07:45:34.743Z,9.65
2019-04-03T07:46:35.146Z,9.69
2019-04-03T07:47:35.737Z,9.82
2019-04-03T07:48:37.148Z,9.84
2019-04-03T07:49:34.820Z,9.89
2019-04-03T07:50:36.539Z,10.01
2019-04-03T07:51:34.667Z,10.02
2019-04-03T07:52:34.859Z,10.25
2019-04-03T07:53:34.625Z,10.23
2019-04-03T07:54:34.737Z,10.37
2019-04-03T07:55:34.613Z,10.42
2019-04-03T07:56:34.604Z,10.64
2019-04-03T07:57:34.586Z,10.71
2019-04-03T07:58:34.603Z,10.76
2019-04-03T07:59:35.026Z,10.90
2019-04-03T08:00:36.290Z,11.02
2019-04-03T08:01:34.749Z,10.99
2019-04-03T08:02:34.639Z,11.08
2019-04-03T08:03:34.784Z,11.00
2019-04-03T08:04:34.524Z,11.05
2019-04-03T08:05:34.517Z,11.07
2019-04-03T08:06:35.823Z,11.07
2019-04-03T08:07:34.476Z,10.92
2019-04-03T08:08:34.471Z,11.02
2019-04-03T08:09:34.459Z,10.84
2019-04-03T08:10:37.243Z,10.90
2019-04-03T08:11:36.930Z,10.92
2019-04-03T08:12:35.453Z,10.81
2019-04-03T08:13:37.377Z,10.69
2019-04-03T08:14:34.409Z,10.64
2019-04-03T08:15:34.392Z,10.56
2019-04-03T08:16:34.477Z,10.54
2019-04-03T08:17:34.369Z,10.49
2019-04-03T08:18:34.506Z,10.33
2019-04-03T08:19:34.486Z,10.26
2019-04-03T08:20:34.340Z,10.30
2019-04-03T08:21:34.359Z,10.12
2019-04-03T08:22:34.631Z,10.09
2019-04-03T08:23:34.666Z,9.99
2019-04-03T08:24:34.320Z,10.01
2019-04-03T08:25:34.299Z,10.04
2019-04-03T08:26:34.301Z,9.94
2019-04-03T08:27:34.295Z,9.92
2019-04-03T08:28:34.372Z,9.91
2019-04-03T08:29:37.511Z,9.87
2019-04-03T08:30:34.605Z,9.89
2019-04-03T08:31:34.221Z,9.91
2019-04-03T08:32:34.546Z,9.89
2019-04-03T08:33:34.216Z,9.89
2019-04-03T08:34:34.191Z,9.89
2019-04-03T08:35:35.725Z,9.87
2019-04-03T08:36:34.170Z,9.89
2019-04-03T08:37:34.251Z,10.04
2019-04-03T08:38:34.210Z,10.12
2019-04-03T08:39:34.143Z,10.05
2019-04-03T08:40:34.447Z,10.19
2019-04-03T08:41:36.728Z,10.37
2019-04-03T08:42:34.100Z,10.37
2019-04-03T08:43:34.369Z,10.57
2019-04-03T08:44:35.711Z,10.74
2019-04-03T08:45:34.207Z,11.00
2019-04-03T08:46:34.068Z,11.07
2019-04-03T08:47:36.828Z,11.26
2019-04-03T08:48:34.038Z,11.48
2019-04-03T08:49:34.049Z,11.60
2019-04-03T08:50:34.025Z,11.84
2019-04-03T08:51:34.842Z,12.06
2019-04-03T08:52:36.284Z,12.15
2019-04-03T08:53:33.999Z,12.28
2019-04-03T08:54:33.985Z,12.31
2019-04-03T08:55:34.024Z,12.39
2019-04-03T08:56:34.071Z,12.47
2019-04-03T08:57:34.230Z,12.46
2019-04-03T08:58:33.947Z,12.47
2019-04-03T08:59:33.971Z,12.49
2019-04-03T09:00:33.929Z,12.32
2019-04-03T09:01:34.420Z,12.35
2019-04-03T09:02:33.886Z,12.28
2019-04-03T09:03:34.263Z,12.29
2019-04-03T09:04:33.880Z,12.27
2019-04-03T09:05:34.064Z,12.27
2019-04-03T09:06:33.976Z,12.28
2019-04-03T09:07:33.833Z,12.31
2019-04-03T09:08:34.226Z,12.36
2019-04-03T09:09:35.179Z,12.60
2019-04-03T09:10:36.730Z,12.67
2019-04-03T09:11:35.555Z,12.85
2019-04-03T09:12:33.784Z,13.13
2019-04-03T09:13:33.780Z,13.27
2019-04-03T09:14:33.758Z,13.59
2019-04-03T09:15:33.747Z,13.79
2019-04-03T09:16:33.746Z,13.89
2019-04-03T09:17:34.674Z,14.05
2019-04-03T09:18:41.255Z,14.12
2019-04-03T09:24:19.461Z,13.89
2019-04-03T09:25:18.969Z,13.77
2019-04-03T09:27:37.979Z,13.28
2019-04-03T09:28:36.493Z,13.11
2019-04-03T09:29:36.453Z,12.98
2019-04-03T09:30:36.444Z,12.98
2019-04-03T09:31:36.433Z,12.87
2019-04-03T09:32:37.444Z,12.82
2019-04-03T09:33:36.426Z,12.80
2019-04-03T09:34:36.399Z,12.86
2019-04-03T09:35:36.398Z,12.79
2019-04-03T09:36:36.386Z,12.68
2019-04-03T09:37:38.023Z,12.80
2019-04-03T09:38:36.569Z,12.76
2019-04-03T09:39:36.347Z,12.83
2019-04-03T09:40:36.339Z,12.75
2019-04-03T09:41:36.327Z,12.78
2019-04-03T09:42:36.340Z,12.80
2019-04-03T09:43:39.057Z,12.75
2019-04-03T09:44:36.368Z,12.79
2019-04-03T09:45:36.582Z,12.83
2019-04-03T09:46:36.606Z,12.86
2019-04-03T09:47:36.348Z,13.03
2019-04-03T09:48:37.078Z,13.18
2019-04-03T09:49:38.215Z,13.35
2019-04-03T09:50:37.232Z,13.59
2019-04-03T09:51:36.214Z,13.74
2019-04-03T09:52:42.377Z,13.81
2019-04-03T09:53:37.195Z,13.81
2019-04-03T09:54:36.188Z,13.87
2019-04-03T09:55:37.542Z,13.90
2019-04-03T09:56:37.546Z,13.81
2019-04-03T09:57:36.589Z,13.72
2019-04-03T09:58:36.669Z,13.63
2019-04-03T09:59:37.821Z,13.59
2019-04-03T10:00:36.399Z,13.59
2019-04-03T10:01:36.142Z,13.72
2019-04-03T10:02:36.101Z,13.79
2019-04-03T10:03:36.093Z,13.79
2019-04-03T10:04:36.080Z,13.99
2019-04-03T10:05:36.102Z,14.08
2019-04-03T10:06:36.323Z,14.18
2019-04-03T10:07:37.029Z,14.44
2019-04-03T10:08:36.202Z,14.60
2019-04-03T10:09:38.435Z,14.72
2019-04-03T10:10:36.014Z,14.97
2019-04-03T10:11:38.414Z,15.03
2019-04-03T10:12:35.995Z,15.29
2019-04-03T10:13:36.176Z,15.51
2019-04-03T10:14:35.987Z,15.59
2019-04-03T10:15:36.024Z,15.75
2019-04-03T10:16:36.348Z,15.86
2019-04-03T10:17:37.401Z,16.09
2019-04-03T10:18:36.220Z,16.28
2019-04-03T10:19:35.913Z,16.38
2019-04-03T10:20:35.899Z,16.75
2019-04-03T10:21:35.927Z,16.97
2019-04-03T10:22:36.182Z,17.11
2019-04-03T10:23:35.874Z,17.31
2019-04-03T10:24:35.863Z,17.29
2019-04-03T10:25:37.059Z,17.19
2019-04-03T10:26:35.838Z,17.11
2019-04-03T10:27:35.895Z,17.06
2019-04-03T10:28:35.822Z,17.19
2019-04-03T10:29:35.814Z,17.15
2019-04-03T10:30:36.244Z,17.15
2019-04-03T10:31:36.108Z,17.12
2019-04-03T10:32:35.798Z,17.12
2019-04-03T10:33:35.767Z,17.08
2019-04-03T10:34:36.229Z,17.01
2019-04-03T10:35:38.702Z,17.04
2019-04-03T10:36:35.737Z,17.02
2019-04-03T10:37:35.738Z,16.99
2019-04-03T10:38:35.718Z,16.83
2019-04-03T10:39:35.703Z,16.81
2019-04-03T10:40:35.696Z,16.68
2019-04-03T10:41:35.875Z,16.61
2019-04-03T10:42:35.814Z,16.42
2019-04-03T10:43:37.312Z,16.33
2019-04-03T10:44:35.645Z,16.21
2019-04-03T10:45:35.903Z,16.10
2019-04-03T10:46:35.633Z,15.91
2019-04-03T10:47:42.425Z,15.82
2019-04-03T10:48:36.807Z,15.68
2019-04-03T10:49:35.605Z,15.72
2019-04-03T10:50:37.924Z,15.68
2019-04-03T10:51:35.575Z,15.62
2019-04-03T10:52:35.561Z,15.64
2019-04-03T10:53:35.581Z,15.68
2019-04-03T10:54:37.550Z,15.65
2019-04-03T10:55:35.730Z,15.82
2019-04-03T10:56:35.551Z,15.82
2019-04-03T10:57:35.665Z,15.83
2019-04-03T10:58:37.935Z,15.70
2019-04-03T10:59:35.883Z,15.65
2019-04-03T11:00:35.482Z,15.52
2019-04-03T11:01:35.637Z,15.59
2019-04-03T11:02:35.521Z,15.59
2019-04-03T11:03:35.446Z,15.55
2019-04-03T11:04:35.456Z,15.61
2019-04-03T11:05:35.423Z,15.59
2019-04-03T11:06:37.486Z,15.72
2019-04-03T11:07:35.705Z,15.90
2019-04-03T11:08:35.397Z,16.17
2019-04-03T11:09:35.382Z,16.36
2019-04-03T11:10:35.386Z,16.49
2019-04-03T11:11:37.175Z,16.54
2019-04-03T11:12:35.506Z,16.60
2019-04-03T11:13:35.648Z,16.61
2019-04-03T11:14:38.498Z,16.72
2019-04-03T11:15:35.346Z,16.66
2019-04-03T11:16:35.638Z,16.58
2019-04-03T11:17:35.295Z,16.78
2019-04-03T11:18:35.600Z,16.91
2019-04-03T11:19:37.181Z,16.96
2019-04-03T11:20:36.718Z,17.01
2019-04-03T11:21:35.531Z,17.09
2019-04-03T11:22:40.926Z,17.33
2019-04-03T11:23:40.724Z,17.34
2019-04-03T11:24:39.777Z,17.38
2019-04-03T11:25:36.267Z,17.56
2019-04-03T11:26:35.200Z,17.57
2019-04-03T11:27:41.870Z,17.48
2019-04-03T11:28:37.458Z,17.44
2019-04-03T11:29:35.247Z,17.48
2019-04-03T11:30:35.173Z,17.52
2019-04-03T11:31:41.234Z,17.30
2019-04-03T11:32:36.162Z,17.06
2019-04-03T11:33:35.383Z,16.86
2019-04-03T11:34:35.108Z,16.64
2019-04-03T11:35:35.119Z,16.41
2019-04-03T11:36:35.089Z,16.29
2019-04-03T11:37:35.153Z,16.05
2019-04-03T11:38:35.063Z,15.83
2019-04-03T11:39:37.205Z,15.61
2019-04-03T11:40:35.068Z,15.47
2019-04-03T11:41:35.025Z,15.29
2019-04-03T11:42:35.019Z,15.29
2019-04-03T11:43:35.049Z,15.42
2019-04-03T11:44:35.028Z,15.49
2019-04-03T11:45:34.990Z,15.55
2019-04-03T11:46:35.460Z,15.70
2019-04-03T11:47:34.987Z,15.76
2019-04-03T11:48:34.972Z,15.91
2019-04-03T11:49:34.946Z,15.98
2019-04-03T11:50:42.476Z,15.98
2019-04-03T11:51:42.469Z,15.97
2019-04-03T11:52:42.457Z,15.91
2019-04-03T11:53:35.960Z,15.82
2019-04-03T11:54:35.037Z,15.80
2019-04-03T11:55:34.876Z,15.70
2019-04-03T11:56:34.864Z,15.65
2019-04-03T11:57:35.153Z,15.64
2019-04-03T11:58:34.843Z,15.77
2019-04-03T11:59:34.831Z,15.76
2019-04-03T12:00:34.822Z,15.70
2019-04-03T12:01:34.810Z,15.84
2019-04-03T12:02:35.071Z,15.94
2019-04-03T12:03:34.797Z,16.01
2019-04-03T12:04:34.878Z,15.98
2019-04-03T12:05:35.106Z,16.08
2019-04-03T12:06:34.760Z,16.15
2019-04-03T12:07:34.737Z,16.24
2019-04-03T12:08:34.935Z,16.24
2019-04-03T12:09:34.859Z,16.21
2019-04-03T12:10:35.601Z,16.29
2019-04-03T12:11:35.985Z,16.32
2019-04-03T12:12:34.914Z,16.35
2019-04-03T12:13:35.030Z,16.29
2019-04-03T12:14:34.760Z,16.28
2019-04-03T12:15:34.827Z,16.21
2019-04-03T12:16:34.834Z,16.26
2019-04-03T12:17:34.634Z,16.16
2019-04-03T12:18:35.025Z,16.20
2019-04-03T12:19:36.820Z,16.12
2019-04-03T12:20:34.614Z,16.08
2019-04-03T12:21:34.593Z,15.83
2019-04-03T12:22:34.574Z,15.70
2019-04-03T12:23:34.567Z,15.67
2019-04-03T12:24:34.575Z,15.46
2019-04-03T12:25:36.452Z,15.42
2019-04-03T12:26:34.539Z,15.28
2019-04-03T12:27:36.055Z,15.29
2019-04-03T12:28:34.507Z,15.25
2019-04-03T12:29:34.501Z,15.18
2019-04-03T12:30:34.509Z,15.10
2019-04-03T12:31:34.609Z,15.02
2019-04-03T12:32:39.332Z,15.00
2019-04-03T12:33:35.453Z,15.00
2019-04-03T12:34:36.741Z,14.99
2019-04-03T12:35:34.444Z,15.09
2019-04-03T12:36:34.662Z,15.14
2019-04-03T12:37:34.777Z,15.17
2019-04-03T12:38:34.406Z,15.19
2019-04-03T12:39:34.396Z,15.21
2019-04-03T12:40:34.664Z,15.15
2019-04-03T12:41:36.412Z,15.15
2019-04-03T12:42:34.352Z,15.17
2019-04-03T12:43:34.347Z,15.06
2019-04-03T12:44:34.540Z,14.88
2019-04-03T12:45:34.677Z,14.96
2019-04-03T12:46:34.305Z,14.92
2019-04-03T12:47:34.734Z,14.68
2019-04-03T12:48:34.375Z,14.60
2019-04-03T12:49:34.688Z,14.48
2019-04-03T12:50:34.631Z,14.29
2019-04-03T12:51:34.350Z,14.14
2019-04-03T12:52:34.318Z,14.05
2019-04-03T12:53:34.589Z,13.95
2019-04-03T12:54:34.425Z,13.86
2019-04-03T12:55:34.558Z,13.79
2019-04-03T12:56:34.202Z,13.72
2019-04-03T12:57:34.472Z,13.68
2019-04-03T12:58:36.311Z,13.56
2019-04-03T12:59:34.180Z,13.47
2019-04-03T13:00:34.168Z,13.49
2019-04-03T13:01:34.146Z,13.27
2019-04-03T13:02:34.135Z,13.27
2019-04-03T13:03:36.374Z,13.16
2019-04-03T13:04:34.131Z,13.11
2019-04-03T13:05:36.336Z,13.01
2019-04-03T13:06:34.087Z,13.00
2019-04-03T13:07:35.952Z,13.04
2019-04-03T13:08:34.072Z,12.87
2019-04-03T13:09:34.115Z,12.87
2019-04-03T13:10:41.535Z,13.00
2019-04-03T13:11:35.118Z,13.05
2019-04-03T13:12:34.069Z,13.11
2019-04-03T13:13:34.019Z,13.28
2019-04-03T13:14:34.022Z,13.37
2019-04-03T13:15:36.242Z,13.52
2019-04-03T13:16:33.989Z,13.68
2019-04-03T13:17:33.972Z,13.86
2019-04-03T13:18:33.962Z,14.12
2019-04-03T13:19:34.013Z,14.43
2019-04-03T13:20:35.844Z,14.54
2019-04-03T13:21:33.933Z,14.78
2019-04-03T13:22:33.925Z,15.09
2019-04-03T13:23:33.934Z,15.31
2019-04-03T13:24:33.903Z,15.47
2019-04-03T13:25:33.934Z,15.62
2019-04-03T13:26:33.898Z,15.83
2019-04-03T13:27:34.025Z,16.05
2019-04-03T13:28:35.963Z,16.28
2019-04-03T13:29:33.876Z,16.32
2019-04-03T13:30:33.831Z,16.42
2019-04-03T13:31:34.208Z,16.57
2019-04-03T13:32:33.828Z,16.61
2019-04-03T13:33:33.803Z,16.60
2019-04-03T13:34:34.052Z,16.78
2019-04-03T13:35:34.035Z,16.76
2019-04-03T13:36:33.773Z,16.83
2019-04-03T13:37:34.012Z,16.83
2019-04-03T13:38:33.795Z,16.87
2019-04-03T13:39:34.672Z,16.83
2019-04-03T13:40:34.952Z,16.83
2019-04-03T13:41:34.807Z,16.78
2019-04-03T13:42:33.712Z,16.65
2019-04-03T13:43:33.689Z,16.66
2019-04-03T13:44:34.026Z,16.53
2019-04-03T13:45:33.670Z,16.47
2019-04-03T13:46:35.728Z,16.42
2019-04-03T13:47:33.824Z,16.43
2019-04-03T13:48:33.649Z,16.20
2019-04-03T13:49:33.624Z,16.24
2019-04-03T13:50:33.722Z,16.16
2019-04-03T13:51:33.603Z,16.01
2019-04-03T13:52:42.084Z,15.86
2019-04-03T13:53:34.599Z,15.82
2019-04-03T13:54:33.719Z,15.76
2019-04-03T13:55:34.553Z,15.65
2019-04-03T13:56:33.694Z,15.39
2019-04-03T13:57:33.777Z,15.25
2019-04-03T13:58:33.774Z,15.17
2019-04-03T13:59:33.813Z,15.06
2019-04-03T14:00:34.108Z,14.82
2019-04-03T14:01:33.637Z,14.77
2019-04-03T14:02:33.477Z,14.60
2019-04-03T14:03:33.465Z,14.47
2019-04-03T14:04:33.491Z,14.33
2019-04-03T14:05:33.816Z,14.14
2019-04-03T14:06:33.957Z,14.15
2019-04-03T14:07:33.438Z,14.04
2019-04-03T14:08:33.430Z,14.00
2019-04-03T14:09:33.813Z,13.99
2019-04-03T14:10:40.753Z,13.87
2019-04-03T14:11:40.430Z,13.83
2019-04-03T14:12:44.338Z,13.81
2019-04-03T14:13:42.579Z,13.71
2019-04-03T14:14:33.360Z,13.74
2019-04-03T14:15:33.345Z,13.68
2019-04-03T14:16:34.890Z,13.75
2019-04-03T14:17:35.865Z,13.71
2019-04-03T14:18:33.356Z,13.65
2019-04-03T14:19:43.290Z,13.63
2019-04-03T14:20:34.281Z,13.63
2019-04-03T14:21:35.593Z,13.60
2019-04-03T14:22:33.544Z,13.50
2019-04-03T14:23:35.170Z,13.42
2019-04-03T14:24:40.121Z,13.33
2019-04-03T14:25:37.696Z,13.30
2019-04-03T14:26:33.258Z,13.19
2019-04-03T14:27:33.232Z,13.16
2019-04-03T14:28:34.601Z,13.13
2019-04-03T14:29:33.192Z,13.12
2019-04-03T14:30:33.884Z,13.15
2019-04-03T14:31:36.615Z,13.01
2019-04-03T14:32:33.179Z,13.13
2019-04-03T14:33:43.503Z,13.12
2019-04-03T14:34:34.536Z,13.16
2019-04-03T14:35:47.492Z,13.16
2019-04-03T14:36:34.121Z,13.13
2019-04-03T14:37:33.139Z,13.01
2019-04-03T14:38:34.052Z,13.01
2019-04-03T14:39:33.088Z,13.01
2019-04-03T14:40:33.080Z,12.98
2019-04-03T14:41:35.270Z,12.87
2019-04-03T14:42:33.068Z,12.94
2019-04-03T14:43:34.464Z,12.91
2019-04-03T14:44:33.030Z,13.03
2019-04-03T14:45:33.260Z,12.90
2019-04-03T14:46:33.015Z,12.93
2019-04-03T14:47:33.062Z,12.86
2019-04-03T14:48:32.994Z,12.82
2019-04-03T14:49:33.453Z,12.83
2019-04-03T14:50:33.283Z,12.83
2019-04-03T14:51:32.958Z,12.83
2019-04-03T14:52:32.993Z,12.87
2019-04-03T14:53:32.955Z,12.76
2019-04-03T14:54:32.928Z,12.78
2019-04-03T14:55:40.359Z,12.75
2019-04-03T14:56:34.191Z,12.72
2019-04-03T14:57:32.905Z,12.76
2019-04-03T14:58:32.895Z,12.76
2019-04-03T14:59:35.186Z,12.75
2019-04-03T15:00:33.249Z,12.78
2019-04-03T15:01:33.104Z,12.76
2019-04-03T15:02:32.842Z,12.79
2019-04-03T15:03:34.280Z,12.72
2019-04-03T15:04:36.462Z,12.76
2019-04-03T15:05:33.040Z,12.75
2019-04-03T15:06:33.352Z,12.64
2019-04-03T15:07:33.038Z,12.65
2019-04-03T15:08:32.797Z,12.61
2019-04-03T15:09:33.023Z,12.55
2019-04-03T15:10:32.834Z,12.58
2019-04-03T15:11:34.738Z,12.53
2019-04-03T15:12:32.756Z,12.54
2019-04-03T15:13:32.726Z,12.49
2019-04-03T15:14:32.744Z,12.43
2019-04-03T15:15:32.707Z,12.43
2019-04-03T15:16:33.261Z,12.42
2019-04-03T15:17:36.049Z,12.46
2019-04-03T15:18:32.677Z,12.27
2019-04-03T15:19:32.665Z,12.27
2019-04-03T15:20:33.820Z,12.31
2019-04-03T15:21:32.828Z,12.27
2019-04-03T15:22:33.593Z,12.25
2019-04-03T15:23:35.383Z,12.15
2019-04-03T15:24:33.999Z,12.13
2019-04-03T15:25:32.667Z,12.06
2019-04-03T15:26:32.646Z,12.12
2019-04-03T15:27:32.582Z,12.10
2019-04-03T15:28:32.580Z,12.02
2019-04-03T15:29:32.907Z,12.03
2019-04-03T15:30:32.968Z,12.02
2019-04-03T15:31:32.547Z,11.95
2019-04-03T15:32:32.524Z,11.87
2019-04-03T15:33:33.052Z,11.90
2019-04-03T15:34:33.025Z,11.75
2019-04-03T15:35:33.686Z,11.69
2019-04-03T15:36:34.926Z,11.57
2019-04-03T15:37:32.523Z,11.59
2019-04-03T15:38:32.807Z,11.48
2019-04-03T15:39:32.448Z,11.44
2019-04-03T15:40:32.820Z,11.43
2019-04-03T15:41:34.212Z,11.30
2019-04-03T15:42:32.415Z,11.22
2019-04-03T15:43:32.578Z,11.25
2019-04-03T15:44:32.393Z,11.17
2019-04-03T15:45:32.379Z,11.14
2019-04-03T15:46:34.178Z,11.12
2019-04-03T15:47:36.527Z,11.08
2019-04-03T15:48:33.412Z,11.04
2019-04-03T15:49:32.346Z,11.15
2019-04-03T15:50:35.334Z,11.07
2019-04-03T15:51:33.355Z,11.08
2019-04-03T15:52:32.612Z,11.08
2019-04-03T15:53:32.308Z,11.02
2019-04-03T15:54:33.295Z,10.89
2019-04-03T15:55:32.271Z,11.04
2019-04-03T15:56:32.313Z,10.96
2019-04-03T15:57:32.305Z,10.97
2019-04-03T15:58:32.239Z,10.97
2019-04-03T15:59:32.249Z,10.99
2019-04-03T16:00:34.566Z,11.00
2019-04-03T16:01:32.306Z,10.97
2019-04-03T16:02:32.272Z,11.00
2019-04-03T16:03:32.229Z,10.94
2019-04-03T16:04:33.980Z,10.90
2019-04-03T16:05:35.696Z,10.82
2019-04-03T16:06:34.793Z,10.86
2019-04-03T16:07:33.491Z,10.90
2019-04-03T16:08:32.200Z,10.93
2019-04-03T16:09:32.321Z,10.90
2019-04-03T16:10:32.109Z,10.90
2019-04-03T16:11:32.432Z,10.86
2019-04-03T16:12:34.859Z,10.86
2019-04-03T16:13:32.077Z,10.86
2019-04-03T16:14:32.064Z,10.86
2019-04-03T16:15:32.061Z,10.90
2019-04-03T16:16:32.764Z,10.86
2019-04-03T16:17:33.564Z,10.69
2019-04-03T16:18:32.045Z,10.76
2019-04-03T16:19:32.011Z,10.60
2019-04-03T16:20:32.256Z,10.59
2019-04-03T16:21:32.494Z,10.59
2019-04-03T16:22:32.304Z,10.54
2019-04-03T16:23:31.985Z,10.54
2019-04-03T16:24:32.448Z,10.46
2019-04-03T16:25:32.548Z,10.44
2019-04-03T16:26:31.952Z,10.38
2019-04-03T16:27:31.922Z,10.35
2019-04-03T16:28:34.051Z,10.41
2019-04-03T16:29:32.339Z,10.35
2019-04-03T16:30:40.431Z,10.35
2019-04-03T16:31:31.900Z,10.37
2019-04-03T16:32:39.089Z,10.26
2019-04-03T16:33:38.996Z,10.23
2019-04-03T16:34:31.846Z,10.16
2019-04-03T16:35:32.319Z,10.19
2019-04-03T16:36:31.845Z,10.13
2019-04-03T16:37:31.821Z,10.01
2019-04-03T16:38:31.816Z,10.13
2019-04-03T16:39:32.865Z,9.98
2019-04-03T16:40:32.350Z,10.05
2019-04-03T16:41:31.787Z,10.05
2019-04-03T16:42:32.193Z,10.02
2019-04-03T16:43:32.204Z,9.99
2019-04-03T16:44:31.801Z,9.89
2019-04-03T16:45:31.727Z,9.89
2019-04-03T16:46:31.716Z,9.87
2019-04-03T16:47:31.728Z,9.87
2019-04-03T16:48:32.137Z,9.92
2019-04-03T16:49:31.690Z,9.89
2019-04-03T16:50:31.678Z,9.84
2019-04-03T16:51:33.215Z,9.84
2019-04-03T16:52:31.659Z,9.84
2019-04-03T16:53:32.145Z,9.82
2019-04-03T16:54:33.098Z,9.86
2019-04-03T16:55:31.641Z,9.82
2019-04-03T16:56:31.612Z,9.82
2019-04-03T16:57:31.598Z,9.87
2019-04-03T16:58:31.652Z,9.77
2019-04-03T16:59:31.796Z,9.83
2019-04-03T17:00:31.567Z,9.73
2019-04-03T17:01:31.999Z,9.83
2019-04-03T17:02:31.878Z,9.69
2019-04-03T17:03:33.144Z,9.77
2019-04-03T17:04:33.035Z,9.68
2019-04-03T17:05:31.516Z,9.69
2019-04-03T17:06:31.525Z,9.73
2019-04-03T17:07:31.493Z,9.61
2019-04-03T17:08:31.537Z,9.66
2019-04-03T17:09:32.953Z,9.65
2019-04-03T17:10:32.548Z,9.56
2019-04-03T17:11:31.590Z,9.56
2019-04-03T17:12:31.435Z,9.47
2019-04-03T17:13:31.751Z,9.47